• Join FlightAware (Why Join?)
  • Login
  • US Flag 
06:26PM EDT


 

Airport Tracker/Info


-or-


 

Live Flight TrackerFlight Track Log ✈ SWA311 ✈ 12-Mar-2014 ✈ KDEN - KMDW

Flight Track Log - Related Links

Times and Time Zones

All times are in EDT time to prevent confusion due to time zone crossing. See the SWA311 flight status page for this flight to view local times or setup timezone preferences in your user account.

Time Position Orientation Groundspeed Altitude Reporting Facility
EDT Latitude Longitude Course Direction KTS MPH feet Rate Location/Type
12:33PM 39.8833 -104.5667 90° East 201 231 7,400  Level Denver TRACON
12:34PM 39.8833 -104.4667 90° East 262 302 9,400 2,280 Climbing Denver TRACON
12:35PM 39.8714 -104.4022 104° East 268 308 11,400 2,580 Climbing Denver Center
12:36PM 39.8742 -104.2789 88° East 319 367 14,000 3,000 Climbing Denver Center
12:37PM 39.8728 -104.1567 91° East 336 387 17,500 2,880 Climbing Denver Center
12:38PM 39.8667 -104.1880 90° East  Level FlightAware Approximate
12:38PM 39.8714 -104.0297 91° East 351 404 20,000  Level Denver Center
12:39PM 39.8719 -103.8933 90° East 358 412 22,800 2,460 Climbing Denver Center
12:40PM 39.8814 -103.7581 85° East 371 427 25,200 1,980 Climbing Denver Center
12:41PM 39.8967 -103.6186 82° East 386 444 27,400 1,980 Climbing Denver Center
12:42PM 39.9156 -103.4461 82° East 401 461 29,700 1,800 Climbing Denver Center
12:43PM 39.9361 -103.2700 81° East 409 471 31,300 1,200 Climbing Denver Center
12:44PM 39.9525 -103.1142 82° East 428 493 32,300 1,080 Climbing Denver Center
12:45PM 39.9708 -102.9506 82° East 453 521 33,600 1,200 Climbing Denver Center
12:46PM 39.9883 -102.7861 82° East 460 529 34,800 1,020 Climbing Denver Center
12:47PM 40.0089 -102.6086 81° East 470 541 35,700 900 Climbing Denver Center
12:48PM 40.0303 -102.4147 82° East 481 554 36,700 780 Climbing Denver Center
12:49PM 40.0472 -102.2433 83° East 491 565 37,400 720 Climbing Denver Center
12:50PM 40.0683 -102.0397 82° East 504 580 38,300 720 Climbing Denver Center
12:51PM 40.0856 -101.8636 83° East 507 583 39,000 300 Climbing Denver Center
12:52PM 40.1039 -101.6597 83° East 507 583 39,000  Level Denver Center
12:54PM 40.1192 -101.4825 84° East 510 587 39,000  Level Denver Center
12:55PM 40.1383 -101.2767 83° East 512 589 39,000  Level Denver Center
12:56PM 40.1556 -101.1008 83° East 512 589 39,000  Level Denver Center
12:57PM 40.1739 -100.8950 83° East 512 589 39,000  Level Denver Center
12:58PM 40.1897 -100.7175 83° East 513 590 39,000  Level Denver Center
12:59PM 40.2075 -100.5125 83° East 513 590 39,000  Level Denver Center
01:00PM 40.2225 -100.3356 84° East 513 590 39,000  Level Denver Center
01:01PM 40.2386 -100.1297 84° East 514 592 39,000  Level Denver Center
01:02PM 40.2533 -99.9511 84° East 514 592 39,000  Level Denver Center
01:03PM 40.2667 -99.7742 84° East 516 594 39,000  Level Denver Center
01:04PM 40.2847 -99.5494 84° East 516 594 39,000  Level Denver Center
01:05PM 40.2983 -99.3617 85° East 518 596 39,000  Level Denver Center
01:06PM 40.3122 -99.1767 84° East 517 595 39,000  Level Denver Center
01:07PM 40.3261 -98.9911 84° East 516 594 39,000  Level Denver Center
01:08PM 40.3389 -98.8056 85° East 516 594 39,000  Level Denver Center
01:09PM 40.3514 -98.6219 85° East 512 589 39,000  Level Denver Center
01:10PM 40.3667 -98.4003 85° East 512 589 39,000  Level Denver Center
01:11PM 40.3789 -98.2156 85° East 513 590 39,000  Level Minneapolis Center
01:12PM 40.3906 -98.0300 85° East 513 590 39,000  Level Minneapolis Center
01:13PM 40.4019 -97.8453 85° East 513 590 39,000  Level Minneapolis Center
01:14PM 40.4136 -97.6581 85° East 513 590 39,000  Level Minneapolis Center
01:15PM 40.4247 -97.4700 86° East 514 592 39,000  Level Minneapolis Center
01:16PM 40.4353 -97.2758 86° East 517 595 39,000  Level Minneapolis Center
01:17PM 40.4450 -97.0894 86° East 517 595 39,000  Level Minneapolis Center
01:18PM 40.4572 -96.8633 86° East 517 595 39,000  Level Minneapolis Center
01:19PM 40.4669 -96.6772 86° East 517 595 39,000  Level Minneapolis Center
01:20PM 40.4758 -96.4903 86° East 517 595 39,000  Level Minneapolis Center
01:21PM 40.4856 -96.3031 86° East 517 595 39,000  Level Minneapolis Center
01:22PM 40.4944 -96.1153 86° East 517 595 39,000  Level Minneapolis Center
01:23PM 40.5075 -95.9300 85° East 517 595 39,000  Level Minneapolis Center
01:24PM 40.5425 -95.7114 78° East 514 592 39,000  Level Minneapolis Center
01:25PM 40.5692 -95.5269 79° East 513 590 39,000  Level Minneapolis Center
01:26PM 40.5958 -95.3444 79° East 513 590 39,000  Level Minneapolis Center
01:28PM 40.6219 -95.1597 79° East 513 590 39,000 -360 Level Minneapolis Center
01:29PM 40.6478 -94.9750 79° East 514 592 38,300 -780 Descending Minneapolis Center
01:30PM 40.6750 -94.7928 79° East 513 590 37,500 -660 Descending Minneapolis Center
01:31PM 40.7050 -94.5681 80° East 517 595 37,000 -300 Descending Minneapolis Center
01:32PM 40.7281 -94.3900 80° East 518 596 37,000  Level Minneapolis Center
01:33PM 40.7536 -94.2022 80° East 519 597 37,000  Level Minneapolis Center
01:34PM 40.7800 -94.0136 79° East 522 601 37,000  Level Minneapolis Center
01:35PM 40.8019 -93.8272 81° East 521 600 37,000  Level Minneapolis Center
01:36PM 40.8308 -93.6025 80° East 521 600 37,000  Level Minneapolis Center
01:37PM 40.8514 -93.4133 82° East 521 600 37,000  Level Minneapolis Center
01:38PM 40.8689 -93.2211 83° East 525 604 37,000 -300 Level Chicago Center
01:39PM 40.8858 -93.0317 83° East 521 600 36,400 -540 Descending Chicago Center
01:40PM 40.9011 -92.8419 84° East 519 597 36,000 -240 Descending Chicago Center
01:41PM 40.9169 -92.6544 84° East 514 592 36,000  Level Chicago Center
01:42PM 40.9331 -92.4658 83° East 515 593 36,000  Level Chicago Center
01:43PM 40.9486 -92.2772 84° East 516 594 36,000 -480 Level Chicago Center
01:44PM 40.9639 -92.0872 84° East 519 597 35,100 -960 Descending Chicago Center
01:45PM 40.9767 -91.9014 85° East 512 589 34,100 -1,080 Descending Chicago Center
01:46PM 40.9956 -91.6778 84° East 512 589 33,000 -1,020 Descending Chicago Center
01:47PM 41.0083 -91.5058 84° East 510 587 32,100 -1,020 Descending Chicago Center
01:48PM 41.0214 -91.3239 85° East 499 574 31,000 -1,320 Descending Chicago Center
01:49PM 41.0353 -91.1403 84° East 500 575 29,500 -1,860 Descending Chicago Center
01:50PM 41.0461 -90.9644 85° East 485 558 27,200 -2,100 Descending Chicago Center
01:51PM 41.0592 -90.7958 84° East 464 534 25,300 -1,620 Descending Chicago Center
01:52PM 41.0731 -90.6078 84° East 431 496 24,000 -1,140 Descending Chicago Center
01:53PM 41.0847 -90.4553 84° East 419 482 23,000 -540 Descending Chicago Center
01:54PM 41.0967 -90.3047 84° East 412 474 23,000 -660 Level Chicago Center
01:55PM 41.1083 -90.1517 84° East 414 476 21,700 -1,020 Descending Chicago Center
01:56PM 41.1194 -89.9919 85° East 429 494 21,000 -780 Descending Chicago Center
01:57PM 41.1367 -89.8344 82° East 431 496 20,200 -900 Descending Chicago Center
01:58PM 41.1656 -89.6833 76° East 423 487 19,200 -1,020 Descending Chicago Center
01:59PM 41.1928 -89.5358 76° East 414 476 18,100 -1,020 Descending Chicago Center
02:00PM 41.2194 -89.3894 76° East 409 471 17,100 -960 Descending Chicago Center
02:01PM 41.2467 -89.2419 76° East 410 472 16,200 -1,680 Descending Chicago Center
02:02PM 41.2717 -89.0889 78° East 405 466 13,700 -2,520 Descending Chicago Center
02:03PM 41.3008 -88.9239 77° East 388 447 11,100 -1,680 Descending Chicago Center
02:04PM 41.3239 -88.8014 76° East 331 381 10,300 -1,020 Descending Chicago Center
02:05PM 41.3431 -88.6933 77° East 298 343 9,100 -1,260 Descending Chicago Center
02:06PM 41.3603 -88.5883 78° East 290 334 7,800 -1,260 Descending Chicago Center
02:08PM 41.3836 -88.4831 74° East 274 315 6,600 -900 Descending Chicago Center
02:09PM 41.4231 -88.4022 57° Northeast 261 300 6,000 -480 Descending Chicago Center
02:10PM 41.4614 -88.3233 57° Northeast 256 295 5,700 -480 Descending Chicago Center
02:11PM 41.5000 -88.2394 58° Northeast 243 280 5,100 -540 Descending Chicago Center
02:12PM 41.5319 -88.1736 57° Northeast 215 247 4,600 -420 Descending Chicago Center
02:13PM 41.5589 -88.1164 58° Northeast 186 214 4,300 -300 Descending Chicago Center
02:14PM 41.5839 -88.0647 57° Northeast 156 180 4,000 -180 Descending Chicago Center
02:15PM 41.6075 -88.0144 58° Northeast 159 183 4,000  Level Chicago Center
02:16PM 41.6308 -87.9639 58° Northeast 159 183 4,000 -120 Level Chicago Center
02:17PM 41.6575 -87.9089 57° Northeast 164 189 3,800 -420 Descending Chicago Center
02:18PM 41.6914 -87.8686 42° Northeast 164 189 3,200 -840 Descending Chicago Center
02:19PM 41.7261 -87.8253 43° Northeast 169 194 2,200 -900 Descending Chicago Center
02:20PM 41.7539 -87.7900 43° Northeast 136 157 1,400 -780 Descending Chicago Center
02:21PM 41.7775 -87.7603 43° Northeast 127 146 700 -720 Descending Chicago Center